Time;durP1;ratioP1;P1;durP2;ratioP2;P2;SDS_P1;SDS_P2;PMS_P1;PMS_P2;Temp;Humidity;BMP_temperature;BMP_pressure;BME280_temperature;BME280_humidity;BME280_pressure;Samples;Min_cycle;Max_cycle;Signal;HPM_P1;HPM_P2
2022/07/31 00:01:08;;;;;;;1999.90;999.90;;;;;;;18.68;57.90;99521.81;9957403;23;20030;-79
2022/07/31 00:05:10;;;;;;;1999.90;999.90;;;;;;;18.54;58.22;99524.03;9960231;23;20026;-78
2022/07/31 00:09:11;;;;;;;1999.90;999.90;;;;;;;18.46;58.59;99524.28;9958984;23;20027;-79
2022/07/31 00:13:33;;;;;;;1999.90;999.90;;;;;;;18.29;59.07;99526.63;9963863;23;20041;-79
2022/07/31 00:17:54;;;;;;;1999.90;999.90;;;;;;;18.14;59.89;99522.75;9955084;23;20062;-79
2022/07/31 00:21:57;;;;;;;1999.90;999.90;;;;;;;18.07;60.11;99514.19;9985987;23;20061;-79
2022/07/31 00:25:58;;;;;;;1999.90;999.90;;;;;;;18.03;60.26;99514.38;9983223;23;20101;-79
2022/07/31 00:30:00;;;;;;;1999.90;999.90;;;;;;;17.95;60.47;99514.59;9984792;23;20023;-79
2022/07/31 00:34:02;;;;;;;1999.90;999.90;;;;;;;17.85;60.96;99518.44;9982920;23;20026;-79
2022/07/31 00:38:04;;;;;;;1999.90;999.90;;;;;;;17.77;61.37;99516.06;9985910;23;20311;-79
2022/07/31 00:42:25;;;;;;;1999.90;999.90;;;;;;;17.72;61.83;99519.72;9939802;23;20027;-79
2022/07/31 00:46:27;;;;;;;1999.90;999.90;;;;;;;17.66;62.31;99522.53;9954603;23;20055;-79
2022/07/31 00:50:29;;;;;;;1999.90;999.90;;;;;;;17.61;62.43;99517.44;10000387;23;20273;-78
2022/07/31 00:54:31;;;;;;;1999.90;999.90;;;;;;;17.58;62.30;99524.50;9959601;23;20416;-78
2022/07/31 00:58:33;;;;;;;1999.90;999.90;;;;;;;17.48;62.20;99519.56;10000179;23;20458;-79
2022/07/31 01:02:36;;;;;;;1999.90;999.90;;;;;;;17.36;62.75;99521.69;9932599;23;20042;-79
2022/07/31 01:06:37;;;;;;;1999.90;999.90;;;;;;;17.28;62.88;99505.31;9983282;23;20027;-79
2022/07/31 01:10:51;;;;;;;1999.90;999.90;;;;;;;17.27;63.22;99509.72;9936872;23;20106;-79
2022/07/31 01:14:56;;;;;;;1999.90;999.90;;;;;;;17.30;63.31;99501.75;9935658;23;20573;-78
2022/07/31 01:19:03;;;;;;;1999.90;999.90;;;;;;;17.16;63.76;99507.38;9954376;23;20027;-79
2022/07/31 01:23:15;;;;;;;1999.90;999.90;;;;;;;17.12;64.32;99504.91;9999155;23;20019;-78
2022/07/31 01:27:46;;;;;;;1999.90;999.90;;;;;;;17.05;64.51;99513.84;9959960;23;20039;-79
2022/07/31 01:32:08;;;;;;;1999.90;999.90;;;;;;;17.09;65.23;99507.63;9979661;23;20027;-78
2022/07/31 01:36:18;;;;;;;1999.90;999.90;;;;;;;17.07;65.71;99505.03;9983217;23;20502;-79
2022/07/31 01:40:26;;;;;;;1999.90;999.90;;;;;;;17.06;66.19;99503.34;9936514;23;20023;-79
2022/07/31 01:44:30;;;;;;;1999.90;999.90;;;;;;;16.90;66.46;99496.81;9977328;23;20023;-78
2022/07/31 01:48:32;;;;;;;1999.90;999.90;;;;;;;16.85;66.78;99498.66;9956899;23;20414;-79
2022/07/31 01:52:36;;;;;;;1999.90;999.90;;;;;;;16.72;66.83;99498.19;9961773;23;20661;-79
2022/07/31 01:56:39;;;;;;;1999.90;999.90;;;;;;;16.72;66.66;99492.06;9963119;23;20068;-79
2022/07/31 02:00:41;;;;;;;1999.90;999.90;;;;;;;16.58;66.92;99492.41;9971777;23;20031;-79
2022/07/31 02:04:45;;;;;;;1999.90;999.90;;;;;;;16.53;67.77;99495.16;9968580;23;20455;-78
2022/07/31 02:08:50;;;;;;;1999.90;999.90;;;;;;;16.53;69.25;99486.44;10008387;23;20026;-78
2022/07/31 02:12:53;;;;;;;1999.90;999.90;;;;;;;16.47;68.84;99482.19;9992604;23;20035;-78
2022/07/31 02:16:55;;;;;;;1999.90;999.90;;;;;;;16.46;68.55;99488.34;9940277;23;20027;-78
2022/07/31 02:20:57;;;;;;;1999.90;999.90;;;;;;;16.44;67.71;99491.91;9967958;23;20023;-78
2022/07/31 02:24:58;;;;;;;1999.90;999.90;;;;;;;16.40;67.90;99495.53;9967305;23;20023;-79
2022/07/31 02:29:01;;;;;;;1999.90;999.90;;;;;;;16.36;67.51;99493.91;10008563;23;20504;-79
2022/07/31 02:33:05;;;;;;;1999.90;999.90;;;;;;;16.22;67.33;99497.72;9988327;23;20028;-79
2022/07/31 02:37:08;;;;;;;1999.90;999.90;;;;;;;16.08;67.91;99484.09;9993685;23;20026;-79
2022/07/31 02:41:11;;;;;;;1999.90;999.90;;;;;;;15.99;68.38;99481.72;9991639;23;20038;-78
2022/07/31 02:45:13;;;;;;;1999.90;999.90;;;;;;;15.90;68.66;99489.81;9963557;23;20015;-79
2022/07/31 02:49:15;;;;;;;1999.90;999.90;;;;;;;15.91;68.85;99486.28;9966325;23;20031;-79
2022/07/31 02:53:17;;;;;;;1999.90;999.90;;;;;;;15.93;69.15;99484.47;9967283;23;20062;-79
2022/07/31 02:57:19;;;;;;;;;;;;;;;15.92;69.65;99488.00;9993093;23;20308;-79
2022/07/31 03:01:20;;;;;;;1999.90;999.90;;;;;;;15.90;70.12;99482.81;9966843;23;19917;-78
2022/07/31 03:05:22;;;;;;;1999.90;999.90;;;;;;;15.89;70.14;99477.59;9986283;23;20107;-79
2022/07/31 03:09:23;;;;;;;1999.90;999.90;;;;;;;15.95;70.14;99485.31;9987423;23;20706;-79
2022/07/31 03:13:28;;;;;;;1999.90;999.90;;;;;;;15.87;70.79;99488.13;10001946;23;20022;-79
2022/07/31 03:17:30;;;;;;;1999.90;999.90;;;;;;;15.91;71.21;99491.53;9989830;23;20512;-78
2022/07/31 03:21:42;;;;;;;1999.90;999.90;;;;;;;15.93;72.09;99490.56;9964450;23;20034;-78
2022/07/31 03:25:44;;;;;;;1999.90;999.90;;;;;;;15.91;72.01;99484.53;10002901;23;20023;-78
2022/07/31 03:29:45;;;;;;;1999.90;999.90;;;;;;;15.98;71.75;99487.88;9962583;23;20026;-79
2022/07/31 03:33:47;;;;;;;1999.90;999.90;;;;;;;16.01;71.55;99486.03;9957524;23;20034;-78
2022/07/31 03:37:48;;;;;;;1999.90;999.90;;;;;;;16.03;71.56;99480.75;9962507;23;20319;-79
2022/07/31 03:41:51;;;;;;;1999.90;999.90;;;;;;;15.96;71.10;99473.94;9961887;23;20026;-79
2022/07/31 03:45:53;;;;;;;1999.90;999.90;;;;;;;15.86;71.15;99480.31;9957762;23;20030;-78
2022/07/31 03:49:55;;;;;;;;;;;;;;;15.83;71.26;99475.16;9987480;23;20065;-79
2022/07/31 03:53:57;;;;;;;1999.90;999.90;;;;;;;15.83;71.15;99472.53;9962322;23;19922;-79
2022/07/31 03:57:59;;;;;;;1999.90;999.90;;;;;;;15.72;72.02;99478.00;9985016;23;20034;-78
2022/07/31 04:02:01;;;;;;;1999.90;999.90;;;;;;;15.63;72.13;99479.09;9957835;23;20503;-79
2022/07/31 04:06:07;;;;;;;1999.90;999.90;;;;;;;15.63;72.00;99481.72;9963471;23;20051;-78
2022/07/31 04:10:09;;;;;;;1999.90;999.90;;;;;;;15.67;72.08;99479.88;9977301;23;20023;-79
2022/07/31 04:14:10;;;;;;;1999.90;999.90;;;;;;;15.67;72.40;99477.28;9977984;23;20034;-79
2022/07/31 04:18:11;;;;;;;1999.90;999.90;;;;;;;15.58;72.55;99478.28;9981991;23;20031;-78
2022/07/31 04:22:13;;;;;;;1999.90;999.90;;;;;;;15.56;72.18;99484.47;9961113;23;20035;-79
2022/07/31 04:26:15;;;;;;;1999.90;999.90;;;;;;;15.53;72.25;99489.78;9961591;23;20276;-79
2022/07/31 04:30:26;;;;;;;1999.90;999.90;;;;;;;15.55;72.19;99490.59;9985927;23;20398;-80
2022/07/31 04:34:28;;;;;;;1999.90;999.90;;;;;;;15.58;72.29;99485.28;9962451;23;20034;-80
2022/07/31 04:38:29;;;;;;;1999.90;999.90;;;;;;;15.55;72.49;99482.75;10001628;23;20023;-79
2022/07/31 04:42:31;;;;;;;1999.90;999.90;;;;;;;15.46;72.56;99485.59;9938247;23;20026;-79
2022/07/31 04:46:33;;;;;;;1999.90;999.90;;;;;;;15.42;72.82;99484.78;9956293;23;20031;-78
2022/07/31 04:50:35;;;;;;;1999.90;999.90;;;;;;;15.41;73.07;99488.28;9937634;23;20102;-79
2022/07/31 04:54:37;;;;;;;1999.90;999.90;;;;;;;15.46;73.31;99489.06;9976398;23;20474;-79
2022/07/31 04:58:39;;;;;;;1999.90;999.90;;;;;;;15.46;73.53;99482.97;9963006;23;20628;-79
2022/07/31 05:02:40;;;;;;;1999.90;999.90;;;;;;;15.49;73.49;99475.06;9957336;23;20027;-78
2022/07/31 05:06:45;;;;;;;1999.90;999.90;;;;;;;15.53;73.85;99476.69;9986062;23;20019;-78
2022/07/31 05:15:07;;;;;;;1999.90;999.90;;;;;;;15.61;73.95;99485.25;9984350;23;20051;-78
2022/07/31 05:19:08;;;;;;;1999.90;999.90;;;;;;;15.85;73.58;99481.22;9938250;23;20034;-79
2022/07/31 05:23:15;;;;;;;1999.90;999.90;;;;;;;16.13;74.32;99483.97;9989008;23;20098;-78
2022/07/31 05:27:16;;;;;;;1999.90;999.90;;;;;;;16.49;73.31;99477.78;9964992;23;20055;-79
2022/07/31 05:31:18;;;;;;;1999.90;999.90;;;;;;;16.78;71.37;99476.16;9989302;23;20062;-79
2022/07/31 05:35:20;;;;;;;1999.90;999.90;;;;;;;17.07;69.71;99481.44;9963209;23;20281;-77
2022/07/31 05:39:23;;;;;;;1999.90;999.90;;;;;;;17.71;68.65;99476.00;9939038;23;20019;-78
2022/07/31 05:43:25;;;;;;;1999.90;999.90;;;;;;;18.25;66.72;99467.19;9978385;23;20495;-79
2022/07/31 05:47:27;;;;;;;1999.90;999.90;;;;;;;18.63;64.93;99466.72;9935487;23;20035;-78
2022/07/31 05:51:45;;;;;;;1999.90;999.90;;;;;;;18.73;63.20;99471.66;9954029;23;20415;-77
2022/07/31 05:55:48;;;;;;;1999.90;999.90;;;;;;;19.17;61.33;99467.38;9977498;23;20078;-77
2022/07/31 05:59:50;;;;;;;1999.90;999.90;;;;;;;19.42;60.97;99472.56;9937508;23;20758;-77
2022/07/31 06:03:51;;;;;;;1999.90;999.90;;;;;;;19.59;60.99;99465.75;9958410;23;20039;-77
2022/07/31 06:07:53;;;;;;;1999.90;999.90;;;;;;;19.86;60.15;99470.81;9962184;23;20083;-77
2022/07/31 06:11:54;;;;;;;1999.90;999.90;;;;;;;20.12;58.87;99470.59;9935391;23;20031;-76
2022/07/31 06:15:56;;;;;;;1999.90;999.90;;;;;;;20.50;56.58;99470.78;9946481;23;20035;-76
2022/07/31 06:19:57;;;;;;;1999.90;999.90;;;;;;;20.59;55.76;99477.41;9937772;23;20086;-78
2022/07/31 06:23:59;;;;;;;1999.90;999.90;;;;;;;20.66;55.30;99474.44;9937737;23;20066;-78
2022/07/31 06:28:02;;;;;;;1999.90;999.90;;;;;;;20.88;55.96;99476.13;9959653;23;20081;-79
2022/07/31 06:32:10;;;;;;;1999.90;999.90;;;;;;;21.06;55.21;99475.28;9964094;23;20042;-78
2022/07/31 06:36:12;;;;;;;1999.90;999.90;;;;;;;21.21;55.22;99476.38;9960131;23;20019;-78
2022/07/31 06:40:14;;;;;;;1999.90;999.90;;;;;;;21.37;55.59;99472.13;9938085;23;20028;-78
2022/07/31 06:44:18;;;;;;;1999.90;999.90;;;;;;;21.45;53.66;99475.25;9976643;23;20427;-77
2022/07/31 06:48:20;;;;;;;1999.90;999.90;;;;;;;21.35;53.22;99479.22;9956254;23;20023;-78
2022/07/31 06:52:22;;;;;;;1999.90;999.90;;;;;;;21.37;52.90;99487.97;9960072;23;20964;-78
2022/07/31 06:56:23;;;;;;;;;;;;;;;21.60;52.58;99492.16;9936295;23;20075;-78
2022/07/31 07:00:25;;;;;;;1999.90;999.90;;;;;;;22.31;51.00;99479.84;9959245;23;19945;-78
2022/07/31 07:04:26;;;;;;;1999.90;999.90;;;;;;;22.98;50.45;99488.69;9936455;23;20439;-77
2022/07/31 07:08:48;;;;;;;1999.90;999.90;;;;;;;23.16;48.27;99478.00;9955891;23;20023;-78
2022/07/31 07:12:49;;;;;;;1999.90;999.90;;;;;;;23.16;47.71;99478.00;9938061;23;20023;-78
2022/07/31 07:16:51;;;;;;;;;;;;;;;23.12;47.29;99486.16;9932053;23;20020;-77
2022/07/31 07:20:53;;;;;;;1999.90;999.90;;;;;;;23.10;47.98;99491.56;9956996;23;19933;-76
2022/07/31 07:24:54;;;;;;;;;;;;;;;23.36;49.23;99479.56;9957819;23;20379;-76
2022/07/31 07:28:56;;;;;;;1999.90;999.90;;;;;;;23.65;48.47;99480.59;9934780;23;20476;-77
2022/07/31 07:32:58;;;;;;;;;;;;;;;23.85;49.11;99483.91;9932780;23;20038;-77
2022/07/31 07:37:00;;;;;;;1999.90;999.90;;;;;;;24.04;48.16;99474.78;9959912;23;19922;-78
2022/07/31 07:41:01;;;;;;;1999.90;999.90;;;;;;;24.24;47.99;99462.16;9983273;23;20097;-77
2022/07/31 07:45:03;;;;;;;;;;;;;;;24.25;45.79;99463.88;9955743;23;20023;-78
2022/07/31 07:49:08;;;;;;;1999.90;999.90;;;;;;;24.41;46.83;99462.03;9980301;23;20514;-77
2022/07/31 07:53:11;;;;;;;1999.90;999.90;;;;;;;24.62;46.16;99465.22;9981797;23;20483;-77
2022/07/31 07:57:17;;;;;;;1999.90;999.90;;;;;;;24.85;46.47;99463.78;9958954;23;20019;-77
2022/07/31 08:01:19;;;;;;;1999.90;999.90;;;;;;;25.14;45.62;99462.00;9973354;23;20074;-78
2022/07/31 08:05:21;;;;;;;1999.90;999.90;;;;;;;25.59;44.30;99460.84;9981953;23;20069;-77
2022/07/31 08:09:23;;;;;;;1999.90;999.90;;;;;;;26.13;42.27;99458.19;9956807;23;20049;-78
2022/07/31 08:13:24;;;;;;;1999.90;999.90;;;;;;;26.23;41.65;99450.44;9956725;23;20030;-77
2022/07/31 08:17:27;;;;;;;1999.90;999.90;;;;;;;26.41;42.39;99449.22;9975492;23;20073;-77
2022/07/31 08:21:29;;;;;;;1999.90;999.90;;;;;;;26.65;41.92;99447.53;9981236;23;20023;-77
2022/07/31 08:25:30;;;;;;;1999.90;999.90;;;;;;;26.90;40.77;99440.47;9979964;23;20023;-77
2022/07/31 08:29:32;;;;;;;1999.90;999.90;;;;;;;27.09;39.45;99440.88;9957091;23;20027;-77
2022/07/31 08:33:37;;;;;;;1999.90;999.90;;;;;;;27.21;38.78;99433.81;9951915;23;20336;-77
2022/07/31 08:37:42;;;;;;;1999.90;999.90;;;;;;;27.57;39.18;99433.81;9980365;23;20037;-76
2022/07/31 08:42:07;;;;;;;1999.90;999.90;;;;;;;27.93;36.82;99430.25;9982211;23;20027;-76
2022/07/31 08:46:11;;;;;;;1999.90;999.90;;;;;;;28.26;36.76;99421.53;9976714;23;20490;-76
2022/07/31 08:55:42;;;;;;;1999.90;999.90;;;;;;;28.71;34.29;99420.72;9992371;23;20009;-76
2022/07/31 08:59:57;;;;;;;1999.90;999.90;;;;;;;29.15;33.47;99425.25;9959679;23;20027;-76
2022/07/31 09:03:59;;;;;;;1999.90;999.90;;;;;;;29.35;33.69;99415.59;9978808;23;20116;-76
2022/07/31 09:08:02;;;;;;;1999.90;999.90;;;;;;;29.78;34.17;99408.41;9959208;23;20027;-76
2022/07/31 09:12:09;;;;;;;1999.90;999.90;;;;;;;30.23;33.64;99407.38;9954970;23;20027;-76
2022/07/31 09:16:11;;;;;;;1999.90;999.90;;;;;;;30.31;31.74;99404.88;9979403;23;20027;-76
2022/07/31 09:20:18;;;;;;;1999.90;999.90;;;;;;;30.47;32.72;99394.56;9932132;23;20042;-76
2022/07/31 09:24:30;;;;;;;1999.90;999.90;;;;;;;30.55;31.65;99396.59;9980478;23;20030;-75
2022/07/31 09:28:43;;;;;;;1999.90;999.90;;;;;;;30.67;31.48;99393.69;9976410;23;20027;-76
2022/07/31 09:32:45;;;;;;;1999.90;999.90;;;;;;;30.71;29.75;99394.28;9973821;23;20067;-76
2022/07/31 09:37:12;;;;;;;1999.90;999.90;;;;;;;30.92;29.51;99405.81;9895715;24;20042;-76
2022/07/31 09:41:17;;;;;;;1999.90;999.90;;;;;;;30.89;29.92;99398.03;9861949;24;20031;-76
2022/07/31 09:45:38;;;;;;;1999.90;999.90;;;;;;;30.90;29.62;99396.19;9861704;23;20036;-75
2022/07/31 09:49:57;;;;;;;1999.90;999.90;;;;;;;30.83;29.85;99384.31;9886530;23;20031;-76
2022/07/31 09:53:59;;;;;;;1999.90;999.90;;;;;;;31.05;29.40;99392.13;9908773;23;20075;-75
2022/07/31 09:58:01;;;;;;;1999.90;999.90;;;;;;;31.20;29.60;99389.94;9887345;23;20274;-76
2022/07/31 10:02:04;;;;;;;1999.90;999.90;;;;;;;31.27;29.05;99396.47;9883920;23;20032;-76
2022/07/31 10:06:10;;;;;;;1999.90;999.90;;;;;;;31.22;29.90;99394.19;9889551;23;20135;-75
2022/07/31 10:10:17;;;;;;;1999.90;999.90;;;;;;;31.32;29.71;99396.06;9904857;23;20024;-76
2022/07/31 10:14:29;;;;;;;1999.90;999.90;;;;;;;31.48;29.27;99385.63;9890857;23;20024;-76
2022/07/31 10:18:36;;;;;;;1999.90;999.90;;;;;;;31.56;29.11;99399.19;9889546;24;20071;-76
2022/07/31 10:22:45;;;;;;;1999.90;999.90;;;;;;;31.46;29.56;99383.09;9888840;24;20023;-76
2022/07/31 10:26:47;;;;;;;1999.90;999.90;;;;;;;31.48;29.30;99386.47;9904511;23;20051;-76
2022/07/31 10:31:11;;;;;;;1999.90;999.90;;;;;;;31.51;29.17;99377.28;9903284;23;20032;-76
2022/07/31 10:35:13;;;;;;;1999.90;999.90;;;;;;;31.56;29.17;99380.41;9954740;23;20026;-76
2022/07/31 10:39:23;;;;;;;1999.90;999.90;;;;;;;31.63;28.87;99378.84;9980979;23;20026;-76
2022/07/31 10:43:49;;;;;;;1999.90;999.90;;;;;;;31.60;28.76;99379.16;9978816;23;20043;-75
2022/07/31 10:47:59;;;;;;;1999.90;999.90;;;;;;;31.70;29.14;99374.59;9951722;23;20019;-76
2022/07/31 10:52:00;;;;;;;1999.90;999.90;;;;;;;31.67;28.84;99371.38;9979322;23;20070;-76
2022/07/31 10:56:04;;;;;;;1999.90;999.90;;;;;;;31.66;29.39;99373.19;9954870;23;20038;-76
2022/07/31 11:00:13;;;;;;;1999.90;999.90;;;;;;;31.83;29.37;99375.22;9975769;23;20023;-76
2022/07/31 11:04:26;;;;;;;1999.90;999.90;;;;;;;31.74;28.96;99362.63;9979479;23;20065;-76
2022/07/31 11:08:27;;;;;;;1999.90;999.90;;;;;;;31.84;28.38;99360.78;9981814;23;20471;-76
2022/07/31 11:12:29;;;;;;;1999.90;999.90;;;;;;;31.72;29.00;99355.66;9956298;23;20058;-76
2022/07/31 11:16:30;;;;;;;1999.90;999.90;;;;;;;31.60;29.29;99354.09;9951860;23;20039;-76
2022/07/31 11:20:32;;;;;;;1999.90;999.90;;;;;;;31.79;29.10;99349.63;9981134;23;20035;-76
2022/07/31 11:24:33;;;;;;;1999.90;999.90;;;;;;;31.94;27.00;99346.47;9955670;23;20057;-76
2022/07/31 11:28:35;;;;;;;1999.90;999.90;;;;;;;31.93;27.38;99352.84;9980780;23;20034;-76
2022/07/31 11:32:36;;;;;;;1999.90;999.90;;;;;;;31.73;26.70;99336.75;9976788;23;20034;-76
2022/07/31 11:36:42;;;;;;;1999.90;999.90;;;;;;;31.78;26.14;99339.88;9932004;23;20728;-75
2022/07/31 11:40:48;;;;;;;1999.90;999.90;;;;;;;32.00;27.11;99332.50;9934536;23;20051;-76
2022/07/31 11:44:50;;;;;;;1999.90;999.90;;;;;;;32.14;26.18;99329.34;9932786;23;20023;-76
2022/07/31 11:48:56;;;;;;;1999.90;999.90;;;;;;;32.10;26.07;99322.56;9950345;23;20114;-76
2022/07/31 11:53:02;;;;;;;1999.90;999.90;;;;;;;32.12;26.22;99334.00;9956696;23;20439;-76
2022/07/31 11:57:04;;;;;;;1999.90;999.90;;;;;;;31.83;27.14;99318.81;9950425;23;20027;-75
2022/07/31 12:01:07;;;;;;;1999.90;999.90;;;;;;;31.91;25.99;99317.22;9930191;23;20039;-76
2022/07/31 12:05:12;;;;;;;1999.90;999.90;;;;;;;31.84;25.23;99314.28;9934029;23;20031;-76
2022/07/31 12:09:14;;;;;;;1999.90;999.90;;;;;;;31.87;25.67;99319.38;9936635;23;20408;-76
2022/07/31 12:13:35;;;;;;;1999.90;999.90;;;;;;;32.03;25.21;99308.88;9933530;23;20118;-76
2022/07/31 12:17:38;;;;;;;1999.90;999.90;;;;;;;32.20;25.63;99320.72;9930282;23;20024;-76
2022/07/31 12:21:40;;;;;;;1999.90;999.90;;;;;;;32.39;26.17;99315.28;9957229;23;20020;-76
2022/07/31 12:25:44;;;;;;;1999.90;999.90;;;;;;;32.40;25.40;99310.75;9932240;23;20047;-76
2022/07/31 12:29:45;;;;;;;1999.90;999.90;;;;;;;32.52;25.71;99312.28;9932790;23;20031;-76
2022/07/31 12:33:47;;;;;;;1999.90;999.90;;;;;;;32.48;24.60;99292.03;9961056;23;20038;-76
2022/07/31 12:37:49;;;;;;;1999.90;999.90;;;;;;;32.51;25.26;99293.59;9972044;23;20462;-76
2022/07/31 12:41:52;;;;;;;1999.90;999.90;;;;;;;32.62;24.09;99299.63;9979510;23;20395;-76
2022/07/31 12:45:53;;;;;;;1999.90;999.90;;;;;;;32.61;24.94;99280.94;9974887;23;20028;-77
2022/07/31 12:49:59;;;;;;;1999.90;999.90;;;;;;;32.66;25.31;99281.34;9980896;23;20023;-76
2022/07/31 12:54:05;;;;;;;1999.90;999.90;;;;;;;32.71;24.47;99285.28;9956037;23;20019;-76
2022/07/31 12:58:06;;;;;;;1999.90;999.90;;;;;;;32.81;24.53;99287.94;9955819;23;20023;-75
2022/07/31 13:02:08;;;;;;;1999.90;999.90;;;;;;;32.79;25.50;99270.22;9927528;23;20058;-76
2022/07/31 13:06:10;;;;;;;1999.90;999.90;;;;;;;32.88;26.60;99264.84;9931208;23;20051;-75
2022/07/31 13:10:11;;;;;;;1999.90;999.90;;;;;;;32.80;25.77;99270.09;9954186;23;20094;-76
2022/07/31 13:14:22;;;;;;;1999.90;999.90;;;;;;;32.76;25.16;99261.47;9994211;23;20032;-76
2022/07/31 13:18:24;;;;;;;1999.90;999.90;;;;;;;32.69;25.10;99273.00;9975512;23;20138;-76
2022/07/31 13:22:25;;;;;;;1999.90;999.90;;;;;;;32.68;25.72;99265.91;9980071;23;20030;-75
2022/07/31 13:26:27;;;;;;;1999.90;999.90;;;;;;;32.77;26.33;99259.63;9978527;23;20435;-76
2022/07/31 13:30:29;;;;;;;1999.90;999.90;;;;;;;32.86;25.88;99255.22;9974927;23;20109;-76
2022/07/31 13:34:30;;;;;;;1999.90;999.90;;;;;;;33.09;25.37;99261.00;9995070;23;20034;-75
2022/07/31 13:38:32;;;;;;;1999.90;999.90;;;;;;;32.98;24.43;99253.97;9982974;23;20019;-77
2022/07/31 13:42:33;;;;;;;1999.90;999.90;;;;;;;33.09;25.13;99256.47;9957387;23;20031;-76
2022/07/31 13:46:35;;;;;;;1999.90;999.90;;;;;;;33.08;25.20;99241.31;9929611;23;20067;-75
2022/07/31 13:50:38;;;;;;;1999.90;999.90;;;;;;;33.09;25.37;99236.78;9933388;23;20106;-76
2022/07/31 13:54:40;;;;;;;1999.90;999.90;;;;;;;33.01;24.21;99237.53;9934806;23;20070;-76
2022/07/31 13:58:42;;;;;;;1999.90;999.90;;;;;;;33.02;24.67;99236.53;9981693;23;20039;-76
2022/07/31 14:02:45;;;;;;;1999.90;999.90;;;;;;;33.07;25.06;99242.31;9978447;23;20036;-75
2022/07/31 14:06:47;;;;;;;1999.90;999.90;;;;;;;32.93;24.02;99240.16;9934320;23;20034;-76
2022/07/31 14:10:49;;;;;;;1999.90;999.90;;;;;;;32.82;24.32;99226.91;9957719;23;20023;-77
2022/07/31 14:14:50;;;;;;;1999.90;999.90;;;;;;;32.80;25.03;99227.06;9982898;23;20048;-76
2022/07/31 14:18:53;;;;;;;1999.90;999.90;;;;;;;32.92;25.10;99219.63;9977985;23;20032;-76
2022/07/31 14:22:54;;;;;;;1999.90;999.90;;;;;;;32.99;24.56;99220.69;9958315;23;20070;-76
2022/07/31 14:26:56;;;;;;;1999.90;999.90;;;;;;;32.99;24.28;99234.16;9957761;23;20019;-75
2022/07/31 14:30:57;;;;;;;1999.90;999.90;;;;;;;33.03;25.11;99220.22;9977989;23;20031;-76
2022/07/31 14:34:59;;;;;;;1999.90;999.90;;;;;;;32.94;25.29;99223.84;9979681;23;20573;-76
2022/07/31 14:39:05;;;;;;;1999.90;999.90;;;;;;;32.74;24.84;99211.53;9980256;23;20026;-76
2022/07/31 14:43:09;;;;;;;1999.90;999.90;;;;;;;32.74;25.45;99211.53;9957574;23;20024;-75
2022/07/31 14:47:11;;;;;;;1999.90;999.90;;;;;;;32.93;25.81;99222.16;9930247;23;20079;-76
2022/07/31 14:51:16;;;;;;;1999.90;999.90;;;;;;;32.84;24.96;99223.06;9957841;23;20023;-76
2022/07/31 14:55:18;;;;;;;1999.90;999.90;;;;;;;32.96;25.51;99205.72;9983776;23;20027;-76
2022/07/31 14:59:20;;;;;;;1999.90;999.90;;;;;;;32.88;25.54;99212.88;9998784;23;20106;-76
2022/07/31 15:03:21;;;;;;;1999.90;999.90;;;;;;;32.84;25.82;99212.31;9958952;23;20027;-77
2022/07/31 15:07:23;;;;;;;1999.90;999.90;;;;;;;32.97;25.73;99203.88;9984599;23;20027;-76
2022/07/31 15:11:47;;;;;;;1999.90;999.90;;;;;;;33.13;26.32;99211.25;9952762;23;20051;-76
2022/07/31 15:16:01;;;;;;;1999.90;999.90;;;;;;;33.19;25.92;99216.00;9987491;23;20038;-76
2022/07/31 15:20:04;;;;;;;1999.90;999.90;;;;;;;33.17;25.96;99204.53;9953679;23;20634;-76
2022/07/31 15:24:05;;;;;;;1999.90;999.90;;;;;;;33.33;26.56;99219.00;9976900;23;20530;-76
2022/07/31 15:28:07;;;;;;;1999.90;999.90;;;;;;;33.30;25.03;99213.91;9977737;23;20023;-76
2022/07/31 15:32:09;;;;;;;1999.90;999.90;;;;;;;33.11;24.96;99221.31;9949960;23;20055;-76
2022/07/31 15:36:10;;;;;;;1999.90;999.90;;;;;;;32.95;24.44;99228.25;9976964;23;20462;-76
2022/07/31 15:40:16;;;;;;;1999.90;999.90;;;;;;;32.85;24.98;99222.06;9979192;23;20082;-76
2022/07/31 15:44:17;;;;;;;1999.90;999.90;;;;;;;32.86;25.25;99222.94;9954371;23;20106;-76
2022/07/31 15:48:19;;;;;;;1999.90;999.90;;;;;;;32.96;25.39;99218.31;9974408;23;20027;-76
2022/07/31 15:52:20;;;;;;;1999.90;999.90;;;;;;;33.03;24.65;99214.84;9954898;23;20034;-76
2022/07/31 15:56:22;;;;;;;1999.90;999.90;;;;;;;32.86;25.03;99215.72;9955615;23;20054;-76
2022/07/31 16:00:24;;;;;;;1999.90;999.90;;;;;;;32.80;24.78;99208.25;9974371;23;20061;-76
2022/07/31 16:04:26;;;;;;;1999.90;999.90;;;;;;;32.74;24.69;99212.38;9955995;23;20027;-76
2022/07/31 16:08:32;;;;;;;1999.90;999.90;;;;;;;32.63;25.36;99215.25;9981020;23;20033;-76
2022/07/31 16:12:36;;;;;;;1999.90;999.90;;;;;;;32.58;26.01;99212.19;9980888;23;20019;-76
2022/07/31 16:16:38;;;;;;;1999.90;999.90;;;;;;;32.74;26.17;99206.97;9951625;23;20034;-75
2022/07/31 16:20:45;;;;;;;1999.90;999.90;;;;;;;32.85;26.01;99205.09;9932305;23;20019;-75
2022/07/31 16:24:47;;;;;;;1999.90;999.90;;;;;;;32.80;26.43;99197.47;9954365;23;20045;-76
2022/07/31 16:28:48;;;;;;;1999.90;999.90;;;;;;;32.69;25.84;99200.38;9954988;23;20019;-76
2022/07/31 16:32:54;;;;;;;1999.90;999.90;;;;;;;32.35;26.25;99198.31;9978329;23;20023;-76
2022/07/31 16:36:56;;;;;;;1999.90;999.90;;;;;;;31.84;27.02;99196.97;9954096;23;20118;-76
2022/07/31 16:40:57;;;;;;;1999.90;999.90;;;;;;;31.40;28.11;99193.06;9978410;23;20442;-76
2022/07/31 16:44:59;;;;;;;1999.90;999.90;;;;;;;31.02;28.03;99195.75;9947423;23;20027;-76
2022/07/31 16:49:00;;;;;;;1999.90;999.90;;;;;;;30.70;28.42;99194.19;9948185;23;20019;-76
2022/07/31 16:53:23;;;;;;;1999.90;999.90;;;;;;;30.36;28.51;99199.03;9952935;23;20638;-76
2022/07/31 16:57:45;;;;;;;1999.90;999.90;;;;;;;30.04;28.71;99196.53;9953151;23;20133;-76
2022/07/31 17:01:46;;;;;;;1999.90;999.90;;;;;;;29.72;28.69;99196.63;9947631;23;20122;-76
2022/07/31 17:06:02;;;;;;;1999.90;999.90;;;;;;;29.49;29.28;99201.28;9956944;23;20059;-76
2022/07/31 17:10:04;;;;;;;1999.90;999.90;;;;;;;29.29;29.72;99200.28;9995964;23;20345;-76
2022/07/31 17:14:06;;;;;;;1999.90;999.90;;;;;;;29.06;29.86;99198.69;9959887;23;20042;-76
2022/07/31 17:18:07;;;;;;;1999.90;999.90;;;;;;;28.87;33.32;99202.88;9986745;23;20078;-77
2022/07/31 17:22:09;;;;;;;1999.90;999.90;;;;;;;28.58;34.53;99201.75;9959283;23;20407;-76
2022/07/31 17:26:12;;;;;;;1999.90;999.90;;;;;;;28.36;34.70;99199.94;9984388;23;20027;-75
2022/07/31 17:30:22;;;;;;;1999.90;999.90;;;;;;;28.17;34.30;99197.88;9981231;23;20924;-76
2022/07/31 17:34:24;;;;;;;;;;;;;;;28.05;32.48;99214.06;9959496;23;20285;-76
2022/07/31 17:38:25;;;;;;;1999.90;999.90;;;;;;;27.90;33.61;99211.63;9984890;23;19960;-76
2022/07/31 17:42:27;;;;;;;;;;;;;;;27.79;32.86;99211.59;9984700;23;20023;-76
2022/07/31 17:46:28;;;;;;;1999.90;999.90;;;;;;;27.65;33.03;99218.03;9931232;23;19933;-76
2022/07/31 17:50:49;;;;;;;1999.90;999.90;;;;;;;27.58;34.05;99218.56;9983120;23;20070;-76
2022/07/31 17:54:54;;;;;;;1999.90;999.90;;;;;;;27.48;36.39;99226.44;9960338;23;20023;-76
2022/07/31 17:59:03;;;;;;;1999.90;999.90;;;;;;;27.35;35.46;99212.34;9959269;23;20030;-75
2022/07/31 18:03:04;;;;;;;1999.90;999.90;;;;;;;27.26;35.50;99226.34;9978466;23;20031;-76
2022/07/31 18:07:06;;;;;;;;;;;;;;;27.11;35.50;99228.38;9975493;23;20034;-76
2022/07/31 18:11:07;;;;;;;1999.90;999.90;;;;;;;27.01;35.66;99238.03;9999715;23;20609;-76
2022/07/31 18:15:10;;;;;;;1999.90;999.90;;;;;;;26.89;36.63;99225.56;9979762;23;20034;-76
2022/07/31 18:19:13;;;;;;;1999.90;999.90;;;;;;;26.83;35.99;99229.56;9958632;23;20028;-76